Flight Track Log - Related Links

Times and Time Zones

All times are in EDT time to prevent confusion due to time zone crossing. See the SKW5460 flight status page for this flight to view local times or setup timezone preferences in your user account.

Time Position Orientation Groundspeed Altitude Reporting Facility
EDT Latitude Longitude Course Direction KTS MPH feet Rate Location/Type
Sun 09:19:28 AM 40.5297 -122.2947 189° South 150 173 1,500  Level Oakland Center
Sun 09:20:28 AM 40.5239 -122.2589 102° East 171 197 3,100 1,488 Climbing Oakland Center
Sun 09:21:00 AM 40.3591 -122.2978 187° South  Level Estimated
Sun 09:21:29 AM 40.4794 -122.2564 178° South 172 198 4,500  Level Oakland Center
Sun 09:22:00 AM 40.2842 -122.3000 192° South  Level Estimated
Sun 09:22:29 AM 40.4278 -122.2678 190° South 184 212 6,100  Level Oakland Center
Sun 09:23:00 AM 40.2255 -122.3388 207° Southwest  Level FlightAware Approximate
Sun 09:23:29 AM 40.3781 -122.2789 190° South 184 212 7,600  Level Oakland Center
Sun 09:24:00 AM 40.1612 -122.3711 189° South  Level FlightAware Approximate
Sun 09:24:30 AM 40.3250 -122.2958 194° South 192 221 9,300  Level Oakland Center
Sun 09:25:30 AM 40.2717 -122.3067 189° South 195 224 11,000 1,537 Climbing Oakland Center
Sun 09:26:31 AM 40.2194 -122.3231 193° South 195 224 12,400 1,587 Climbing Oakland Center
Sun 09:27:31 AM 40.1553 -122.3428 193° South 203 234 14,200 1,600 Climbing Oakland Center
Sun 09:28:31 AM 40.1019 -122.3533 189° South 197 227 15,600 1,289 Climbing Oakland Center
Sun 09:29:32 AM 40.0475 -122.3675 191° South 199 229 16,800 1,388 Climbing Oakland Center
Sun 09:30:32 AM 39.9906 -122.3825 191° South 206 237 18,400 1,450 Climbing Oakland Center
Sun 09:31:32 AM 39.9336 -122.3978 192° South 207 238 19,700 1,140 Climbing Oakland Center
Sun 09:32:33 AM 39.8783 -122.4128 192° South 204 235 20,700 645 Climbing Oakland Center
Sun 09:33:33 AM 39.8189 -122.4294 192° South 214 246 21,000 149 Climbing Oakland Center
Sun 09:34:34 AM 39.7517 -122.4464 191° South 238 274 21,000 446 Level Oakland Center
Sun 09:35:34 AM 39.6864 -122.4628 191° South 238 274 21,900 793 Climbing Oakland Center
Sun 09:36:35 AM 39.6264 -122.4786 191° South 224 258 22,600 545 Climbing Oakland Center
Sun 09:37:35 AM 39.5631 -122.4950 191° South 230 265 23,000 198 Climbing Oakland Center
Sun 09:38:36 AM 39.4967 -122.5108 190° South 242 278 23,000  Level Oakland Center
Sun 09:39:36 AM 39.4267 -122.5275 190° South 253 291 23,000  Level Oakland Center
Sun 09:40:37 AM 39.3586 -122.5456 192° South 254 292 23,000  Level Oakland Center
Sun 09:41:37 AM 39.2861 -122.5653 192° South 264 304 23,000  Level Oakland Center
Sun 09:42:38 AM 39.2081 -122.5847 191° South 256 295 23,000  Level Oakland Center
Sun 09:43:38 AM 39.1464 -122.6022 192° South 256 295 23,000  Level Oakland Center
Sun 09:44:39 AM 39.0764 -122.6197 191° South 256 295 23,000  Level Oakland Center
Sun 09:45:39 AM 39.0058 -122.6372 191° South 259 298 23,000  Level Oakland Center
Sun 09:46:40 AM 38.9283 -122.6578 192° South 256 295 23,000  Level Oakland Center
Sun 09:47:40 AM 38.8586 -122.6750 191° South 255 293 23,000 -149 Level Oakland Center
Sun 09:48:41 AM 38.7878 -122.6944 192° South 257 296 22,700 -984 Descending Oakland Center
Sun 09:49:42 AM 38.7122 -122.7142 192° South 274 315 21,000 -1,736 Descending Oakland Center
Sun 09:50:42 AM 38.6344 -122.7344 192° South 283 326 19,200 -1,884 Descending Oakland Center
Sun 09:51:43 AM 38.5583 -122.7519 190° South 279 321 17,200 -1,785 Descending Oakland Center
Sun 09:52:43 AM 38.4844 -122.7708 191° South 275 316 15,600 -1,686 Descending Oakland Center
Sun 09:53:44 AM 38.4119 -122.7892 191° South 268 308 13,800 -1,785 Descending Oakland Center
Sun 09:54:44 AM 38.3411 -122.8078 192° South 261 300 12,000 -1,785 Descending Oakland Center
Sun 09:55:45 AM 38.2711 -122.8244 191° South 258 297 10,200 -1,636 Descending Oakland Center
Sun 09:56:45 AM 38.2053 -122.8389 190° South 245 282 8,700 -1,488 Descending Oakland Center
Sun 09:57:46 AM 38.1400 -122.8533 190° South 242 278 7,200 -885 Descending Oakland Center
Sun 09:58:47 AM 38.0661 -122.8692 190° South 230 265 6,900 -99 Descending Oakland Center
Sun 09:59:47 AM 38.0058 -122.8431 161° South 230 265 7,000  Climbing Oakland Center
Sun 10:00:48 AM 37.9475 -122.8139 158° South 229 264 6,900 -50 Descending Oakland Center
Sun 10:01:48 AM 37.8967 -122.7719 147° Southeast 228 262 6,900  Level Oakland Center
Sun 10:02:49 AM 37.8558 -122.7119 131° Southeast 228 262 6,900 -148 Level Oakland Center
Sun 10:03:50 AM 37.8147 -122.6517 131° Southeast 230 265 6,600 -545 Descending Oakland Center
Sun 10:04:28 AM 37.7833 -122.6000 128° Southeast 227 261 6,000 -419 Descending Northern Cal TRACON
Sun 10:05:16 AM 37.7667 -122.5500 113° Southeast 229 264 6,000  Level Northern Cal TRACON
Sun 10:06:16 AM 37.7500 -122.4667 104° East 236 272 6,000  Level Northern Cal TRACON
Sun 10:07:10 AM 37.7833 -122.4167 50° Northeast 258 297 6,000  Level Northern Cal TRACON
Sun 10:08:10 AM 37.8500 -122.3833 22° Northeast 252 290 6,000  Level Northern Cal TRACON
Sun 10:08:53 AM 37.8611 -122.3225 77° East 247 284 6,000 -583 Level Oakland Center
Sun 10:09:53 AM 37.8358 -122.2517 114° Southeast 227 261 5,000 -1,190 Descending Oakland Center
Sun 10:10:54 AM 37.7842 -122.2592 187° South 195 224 3,600 -1,289 Descending Oakland Center
Sun 10:11:54 AM 37.7403 -122.2908 210° Southwest 184 212 2,400 -744 Descending Oakland Center
Sun 10:12:55 AM 37.7014 -122.3167 208° Southwest 170 196 2,100 -590 Descending Oakland Center
Sun 10:13:56 AM 37.6672 -122.3386 207° Southwest 154 177 1,200 -793 Descending Oakland Center
Sun 10:14:56 AM 37.6372 -122.3581 207° Southwest 137 158 500 -446 Descending Oakland Center
Sun 10:15:57 AM 37.6092 -122.3767 208° Southwest 134 154 300 -197 Descending Oakland Center

Login

Don't have an account? Register now (free) for customized features, flight alerts, and more!